createdAt,value
2022-11-27T00:00:18.531Z,101400.84
2022-11-27T00:03:08.477Z,101389.78
2022-11-27T00:05:58.135Z,101395.81
2022-11-27T00:08:47.244Z,101357.81
2022-11-27T00:11:39.217Z,101384.47
2022-11-27T00:14:27.686Z,101378.00
2022-11-27T00:17:16.162Z,101383.31
2022-11-27T00:20:07.451Z,101371.16
2022-11-27T00:22:55.954Z,101364.44
2022-11-27T00:25:51.137Z,101360.41
2022-11-27T00:28:40.148Z,101310.53
2022-11-27T00:31:30.660Z,101346.50
2022-11-27T00:34:19.260Z,101351.16
2022-11-27T00:37:09.209Z,101345.00
2022-11-27T00:39:57.669Z,101329.91
2022-11-27T00:42:46.215Z,101333.28
2022-11-27T00:45:34.687Z,101277.13
2022-11-27T00:48:23.153Z,101302.16
2022-11-27T00:51:13.812Z,101327.03
2022-11-27T00:54:04.668Z,101323.19
2022-11-27T00:56:53.162Z,101329.53
2022-11-27T00:59:41.643Z,101322.09
2022-11-27T01:02:30.152Z,101325.97
2022-11-27T01:05:19.052Z,101331.56
2022-11-27T01:08:09.677Z,101314.00
2022-11-27T01:10:59.927Z,101318.59
2022-11-27T01:13:49.009Z,101296.47
2022-11-27T01:16:42.616Z,101308.25
2022-11-27T01:19:31.525Z,101322.72
2022-11-27T01:22:19.974Z,101316.94
2022-11-27T01:25:09.759Z,101312.34
2022-11-27T01:27:59.977Z,101306.00
2022-11-27T01:30:48.530Z,101305.75
2022-11-27T01:33:37.059Z,101310.47
2022-11-27T01:36:26.368Z,101297.94
2022-11-27T01:39:16.778Z,101311.75
2022-11-27T01:42:05.486Z,101311.75
2022-11-27T01:44:56.460Z,101318.13
2022-11-27T01:47:47.120Z,101305.63
2022-11-27T01:50:37.317Z,101307.56
2022-11-27T01:53:26.186Z,101311.16
2022-11-27T01:56:14.675Z,101318.25
2022-11-27T01:59:04.025Z,101319.09
2022-11-27T02:01:53.813Z,101323.78
2022-11-27T02:04:42.564Z,101317.38
2022-11-27T02:07:31.299Z,101321.25
2022-11-27T02:10:20.538Z,101324.03
2022-11-27T02:13:11.375Z,101322.59
2022-11-27T02:16:07.253Z,101157.38
2022-11-27T02:19:00.080Z,101317.75
2022-11-27T02:21:55.116Z,101313.19
2022-11-27T02:24:50.237Z,101309.09
2022-11-27T02:28:07.894Z,101312.22
2022-11-27T02:31:01.831Z,101323.31
2022-11-27T02:33:53.519Z,101320.91
2022-11-27T02:36:45.095Z,101328.59
2022-11-27T02:39:36.309Z,101333.53
2022-11-27T02:42:24.789Z,101336.41
2022-11-27T02:45:15.660Z,101337.63
2022-11-27T02:48:06.246Z,101344.59
2022-11-27T02:50:55.449Z,101343.66
2022-11-27T02:53:46.796Z,101328.47
2022-11-27T02:56:35.859Z,101320.03
2022-11-27T02:59:25.589Z,101306.56
2022-11-27T03:02:19.002Z,101309.19
2022-11-27T03:05:11.957Z,101309.56
2022-11-27T03:08:03.763Z,101249.56
2022-11-27T03:10:55.544Z,101294.00
2022-11-27T03:13:46.344Z,101292.00
2022-11-27T03:16:39.581Z,101293.06
2022-11-27T03:19:32.108Z,101288.97
2022-11-27T03:22:21.975Z,101284.06
2022-11-27T03:25:10.500Z,101276.38
2022-11-27T03:28:01.916Z,101273.47
2022-11-27T03:30:50.571Z,101264.00
2022-11-27T03:33:39.361Z,101268.88
2022-11-27T03:36:27.897Z,101236.59
2022-11-27T03:39:17.727Z,101255.84
2022-11-27T03:42:15.592Z,101259.22
2022-11-27T03:45:09.563Z,101255.00
2022-11-27T03:48:07.875Z,101254.66
2022-11-27T03:51:04.126Z,101263.78
2022-11-27T03:53:55.386Z,101255.16
2022-11-27T03:56:49.911Z,101257.19
2022-11-27T03:59:40.373Z,101257.88
2022-11-27T04:02:31.721Z,101248.38
2022-11-27T04:05:20.909Z,101264.03
2022-11-27T04:08:09.401Z,101259.72
2022-11-27T04:10:57.832Z,101262.09
2022-11-27T04:13:47.673Z,101251.88
2022-11-27T04:16:36.177Z,101247.19
2022-11-27T04:19:24.622Z,101244.44
2022-11-27T04:22:13.061Z,101238.53
2022-11-27T04:25:01.651Z,101227.34
2022-11-27T04:27:50.854Z,101245.63
2022-11-27T04:30:40.633Z,101257.19
2022-11-27T04:33:29.234Z,101253.91
2022-11-27T04:36:17.898Z,101250.66
2022-11-27T04:39:06.379Z,101247.19
2022-11-27T04:41:54.827Z,101252.50
2022-11-27T04:44:43.412Z,101233.25
2022-11-27T04:47:33.449Z,101249.47
2022-11-27T04:50:21.898Z,101224.69
2022-11-27T04:53:10.376Z,101223.03
2022-11-27T04:55:58.792Z,101221.47
2022-11-27T04:58:47.242Z,101229.16
2022-11-27T05:01:35.709Z,101217.72
2022-11-27T05:04:25.600Z,101219.16
2022-11-27T05:07:14.145Z,101218.56
2022-11-27T05:10:02.743Z,101212.56
2022-11-27T05:12:51.201Z,101208.34
2022-11-27T05:15:39.645Z,101201.84
2022-11-27T05:18:28.285Z,101190.66
2022-11-27T05:21:18.109Z,101198.13
2022-11-27T05:24:07.469Z,101146.59
2022-11-27T05:26:56.863Z,101211.09
2022-11-27T05:29:45.429Z,101218.47
2022-11-27T05:32:33.841Z,101213.25
2022-11-27T05:35:22.282Z,101221.31
2022-11-27T05:38:12.655Z,101199.81
2022-11-27T05:41:01.109Z,101213.63
2022-11-27T05:43:49.620Z,101201.66
2022-11-27T05:46:38.541Z,101211.72
2022-11-27T05:49:27.074Z,101216.41
2022-11-27T05:52:15.545Z,101216.06
2022-11-27T05:55:05.966Z,101217.72
2022-11-27T05:57:54.549Z,101212.06
2022-11-27T06:00:43.152Z,101210.03
2022-11-27T06:03:31.836Z,101212.81
2022-11-27T06:06:21.153Z,101198.38
2022-11-27T06:09:13.134Z,101189.75
2022-11-27T06:12:03.169Z,101205.59
2022-11-27T06:14:51.593Z,101195.53
2022-11-27T06:17:40.005Z,101179.63
2022-11-27T06:20:28.500Z,101167.63
2022-11-27T06:23:16.984Z,101172.34
2022-11-27T06:26:16.952Z,101170.75
2022-11-27T06:29:06.984Z,101169.81
2022-11-27T06:31:55.509Z,101167.03
2022-11-27T06:34:43.983Z,101169.78
2022-11-27T06:37:32.447Z,101153.19
2022-11-27T06:40:20.875Z,101151.28
2022-11-27T06:43:09.317Z,101143.34
2022-11-27T06:45:59.898Z,101135.56
2022-11-27T06:48:50.218Z,101144.94
2022-11-27T06:51:38.725Z,101150.22
2022-11-27T06:54:27.216Z,101143.13
2022-11-27T06:57:16.465Z,101141.44
2022-11-27T07:00:05.922Z,101153.56
2022-11-27T07:02:56.436Z,101138.78
2022-11-27T07:05:44.873Z,101144.69
2022-11-27T07:08:33.831Z,101136.88
2022-11-27T07:11:23.782Z,101134.69
2022-11-27T07:14:12.229Z,101109.50
2022-11-27T07:17:00.636Z,101123.44
2022-11-27T07:19:50.444Z,101118.84
2022-11-27T07:22:39.226Z,101101.44
2022-11-27T07:25:27.674Z,101104.19
2022-11-27T07:28:18.996Z,101107.53
2022-11-27T07:31:07.869Z,101111.84
2022-11-27T07:33:56.457Z,101105.81
2022-11-27T07:36:46.246Z,101105.59
2022-11-27T07:40:00.690Z,101103.78
2022-11-27T07:42:43.316Z,101068.94
2022-11-27T07:45:31.773Z,101101.94
2022-11-27T07:48:20.409Z,101127.66
2022-11-27T07:51:09.575Z,101095.63
2022-11-27T07:54:00.444Z,101116.59
2022-11-27T07:56:48.981Z,101139.22
2022-11-27T07:59:37.498Z,101142.06
2022-11-27T08:02:26.569Z,101141.19
2022-11-27T08:05:15.239Z,101112.22
2022-11-27T08:08:04.863Z,101124.31
2022-11-27T08:10:54.742Z,101120.31
2022-11-27T08:13:43.182Z,101104.91
2022-11-27T08:16:32.279Z,101074.34
2022-11-27T08:19:20.765Z,101071.06
2022-11-27T08:22:12.912Z,100938.53
2022-11-27T08:25:01.409Z,101063.84
2022-11-27T08:27:51.257Z,101060.56
2022-11-27T08:30:39.719Z,101063.34
2022-11-27T08:33:28.434Z,101001.97
2022-11-27T08:36:18.263Z,101002.50
2022-11-27T08:39:07.075Z,101042.41
2022-11-27T08:41:55.610Z,101043.66
2022-11-27T08:44:45.585Z,101036.59
2022-11-27T08:47:34.065Z,101022.88
2022-11-27T08:50:22.528Z,101044.00
2022-11-27T08:53:11.053Z,101044.28
2022-11-27T08:56:06.921Z,101038.09
2022-11-27T08:58:55.573Z,101034.13
2022-11-27T09:01:45.729Z,101039.19
2022-11-27T09:04:34.907Z,101045.03
2022-11-27T09:07:23.998Z,101052.69
2022-11-27T09:10:12.923Z,101059.81
2022-11-27T09:13:01.695Z,101070.13
2022-11-27T09:15:50.752Z,101065.69
2022-11-27T09:18:41.666Z,101052.75
2022-11-27T09:21:31.612Z,101071.19
2022-11-27T09:24:20.154Z,101064.97
2022-11-27T09:27:08.797Z,101053.59
2022-11-27T09:29:57.429Z,101034.28
2022-11-27T09:32:46.023Z,101039.06
2022-11-27T09:35:38.729Z,101040.88
2022-11-27T09:38:27.492Z,101043.53
2022-11-27T09:41:40.811Z,101041.59
2022-11-27T09:44:34.182Z,101018.84
2022-11-27T09:47:41.167Z,101003.94
2022-11-27T09:50:32.403Z,100907.19
2022-11-27T09:53:27.978Z,100985.19
2022-11-27T09:56:18.692Z,101025.13
2022-11-27T09:59:16.305Z,101031.25
2022-11-27T10:02:04.942Z,101031.41
2022-11-27T10:08:17.463Z,101028.25
2022-11-27T10:11:17.048Z,101046.56
2022-11-27T10:14:18.094Z,101035.06
2022-11-27T10:17:09.662Z,101017.03
2022-11-27T10:20:03.024Z,101018.38
2022-11-27T10:22:55.971Z,101010.00
2022-11-27T10:25:47.998Z,100979.97
2022-11-27T10:28:41.383Z,100986.63
2022-11-27T10:31:36.301Z,100984.41
2022-11-27T10:34:31.290Z,100987.06
2022-11-27T10:37:23.973Z,100994.59
2022-11-27T10:40:20.683Z,100982.59
2022-11-27T10:43:13.099Z,100972.13
2022-11-27T10:46:05.093Z,100956.75
2022-11-27T10:48:53.587Z,100921.25
2022-11-27T10:51:42.471Z,100951.06
2022-11-27T10:54:34.950Z,100935.53
2022-11-27T10:57:33.104Z,100915.28
2022-11-27T11:00:24.115Z,100912.34
2022-11-27T11:03:18.732Z,100906.56
2022-11-27T11:06:20.743Z,100900.88
2022-11-27T11:09:16.040Z,100754.84
2022-11-27T11:12:08.697Z,100881.66
2022-11-27T11:14:58.928Z,100878.84
2022-11-27T11:17:47.579Z,100793.75
2022-11-27T11:20:37.528Z,100881.50
2022-11-27T11:23:32.346Z,100886.97
2022-11-27T11:26:27.241Z,100884.00
2022-11-27T11:29:30.493Z,100885.56
2022-11-27T11:32:24.709Z,100886.16
2022-11-27T11:35:31.491Z,100886.22
2022-11-27T11:38:27.856Z,100877.47
2022-11-27T11:41:18.950Z,100870.56
2022-11-27T11:44:07.588Z,100880.00
2022-11-27T11:46:56.081Z,100870.81
2022-11-27T11:49:44.638Z,100866.38
2022-11-27T11:52:42.373Z,100863.47
2022-11-27T11:55:37.206Z,100856.75
2022-11-27T11:58:36.571Z,100827.78
2022-11-27T12:01:39.027Z,100851.03
2022-11-27T12:04:57.371Z,100839.09
2022-11-27T12:07:55.581Z,100827.16
2022-11-27T12:10:53.942Z,100825.16
2022-11-27T12:13:55.882Z,100827.97
2022-11-27T12:16:56.115Z,100818.97
2022-11-27T12:19:56.391Z,100818.09
2022-11-27T12:23:22.935Z,100803.59
2022-11-27T12:26:21.764Z,100812.47
2022-11-27T12:29:33.484Z,100818.78
2022-11-27T12:32:33.054Z,100817.63
2022-11-27T12:35:32.131Z,100807.50
2022-11-27T12:38:34.866Z,100794.50
2022-11-27T12:41:47.071Z,100803.53
2022-11-27T12:44:47.924Z,100798.38
2022-11-27T12:47:40.494Z,100793.19
2022-11-27T12:50:35.255Z,100785.78
2022-11-27T12:53:28.427Z,100780.09
2022-11-27T12:56:22.031Z,100783.69
2022-11-27T12:59:18.055Z,100741.31
2022-11-27T13:02:18.492Z,100746.16
2022-11-27T13:05:11.292Z,100772.50
2022-11-27T13:08:02.388Z,100762.09
2022-11-27T13:10:54.919Z,100767.78
2022-11-27T13:13:45.637Z,100774.16
2022-11-27T13:16:40.911Z,100771.16
2022-11-27T13:19:33.198Z,100775.81
2022-11-27T13:22:27.715Z,100749.09
2022-11-27T13:25:16.348Z,100780.16
2022-11-27T13:28:06.175Z,100773.69
2022-11-27T13:30:55.727Z,100775.81
2022-11-27T13:33:46.729Z,100737.56
2022-11-27T13:36:38.163Z,100761.47
2022-11-27T13:39:29.860Z,100751.53
2022-11-27T13:42:21.160Z,100709.84
2022-11-27T13:45:18.936Z,100735.44
2022-11-27T13:48:23.239Z,100710.75
2022-11-27T13:51:24.197Z,100715.16
2022-11-27T13:54:14.330Z,100711.31
2022-11-27T13:57:14.307Z,100698.00
2022-11-27T14:00:05.169Z,100707.38
2022-11-27T14:02:53.638Z,100705.34
2022-11-27T14:05:44.775Z,100705.81
2022-11-27T14:08:35.886Z,100675.63
2022-11-27T14:11:36.982Z,100686.50
2022-11-27T14:14:28.022Z,100679.69
2022-11-27T14:17:26.220Z,100667.06
2022-11-27T14:20:28.007Z,100660.34
2022-11-27T14:23:27.922Z,100660.03
2022-11-27T14:26:23.685Z,100623.53
2022-11-27T14:29:12.708Z,100648.63
2022-11-27T14:32:03.044Z,100647.13
2022-11-27T14:34:51.615Z,100638.28
2022-11-27T14:37:40.086Z,100630.63
2022-11-27T14:40:29.119Z,100623.97
2022-11-27T14:43:20.389Z,100618.75
2022-11-27T14:46:15.377Z,100618.25
2022-11-27T14:49:04.230Z,100626.00
2022-11-27T14:51:53.079Z,100631.00
2022-11-27T14:54:42.533Z,100293.59
2022-11-27T14:57:31.438Z,100623.50
2022-11-27T15:00:24.266Z,100613.00
2022-11-27T15:03:21.434Z,100602.38
2022-11-27T15:06:18.049Z,100603.91
2022-11-27T15:09:30.796Z,100598.56
2022-11-27T15:12:18.297Z,100597.53
2022-11-27T15:15:09.400Z,100598.38
2022-11-27T15:18:01.110Z,100606.38
2022-11-27T15:20:50.260Z,100589.94
2022-11-27T15:23:39.664Z,100576.09
2022-11-27T15:26:34.872Z,100550.75
2022-11-27T15:29:33.704Z,100554.28
2022-11-27T15:32:24.559Z,100572.00
2022-11-27T15:35:17.991Z,100568.63
2022-11-27T15:38:10.581Z,100558.34
2022-11-27T15:41:01.861Z,100553.84
2022-11-27T15:43:50.511Z,100546.19
2022-11-27T15:46:39.030Z,100530.22
2022-11-27T15:49:27.646Z,100528.03
2022-11-27T15:52:17.717Z,100540.84
2022-11-27T15:55:07.415Z,100532.50
2022-11-27T15:57:55.981Z,100510.56
2022-11-27T16:00:44.919Z,100517.06
2022-11-27T16:03:33.450Z,100520.38
2022-11-27T16:06:23.443Z,100516.22
2022-11-27T16:09:13.508Z,100499.28
2022-11-27T16:12:02.258Z,100509.75
2022-11-27T16:14:50.837Z,100504.09
2022-11-27T16:17:39.665Z,100501.75
2022-11-27T16:20:28.708Z,100491.19
2022-11-27T16:23:17.388Z,100488.66
2022-11-27T16:26:07.668Z,100487.66
2022-11-27T16:28:56.256Z,100491.63
2022-11-27T16:31:44.967Z,100491.63
2022-11-27T16:34:33.726Z,100495.94
2022-11-27T16:37:22.460Z,100493.09
2022-11-27T16:40:11.914Z,100491.44
2022-11-27T16:43:02.495Z,100483.63
2022-11-27T16:45:51.163Z,100448.63
2022-11-27T16:48:41.167Z,100479.78
2022-11-27T16:51:32.039Z,100470.47
2022-11-27T16:54:20.543Z,100478.94
2022-11-27T16:57:09.134Z,100470.13
2022-11-27T16:59:59.489Z,100458.78
2022-11-27T17:02:48.063Z,100455.16
2022-11-27T17:05:38.143Z,100427.53
2022-11-27T17:08:27.078Z,100438.84
2022-11-27T17:11:17.269Z,100430.66
2022-11-27T17:14:08.329Z,100428.69
2022-11-27T17:16:58.387Z,100429.69
2022-11-27T17:19:49.073Z,100427.84
2022-11-27T17:22:37.638Z,100416.56
2022-11-27T17:25:26.261Z,100418.56
2022-11-27T17:28:14.800Z,100408.25
2022-11-27T17:31:03.511Z,100407.75
2022-11-27T17:33:56.656Z,100405.41
2022-11-27T17:36:45.545Z,100408.25
2022-11-27T17:39:34.334Z,100400.78
2022-11-27T17:42:23.171Z,100403.59
2022-11-27T17:45:12.295Z,100402.25
2022-11-27T17:48:01.881Z,100413.25
2022-11-27T17:50:52.004Z,100418.22
2022-11-27T17:53:40.548Z,100391.78
2022-11-27T17:56:29.980Z,100350.06
2022-11-27T17:59:18.848Z,100230.56
2022-11-27T18:02:07.430Z,100372.63
2022-11-27T18:04:55.953Z,100214.88
2022-11-27T18:07:45.917Z,100358.06
2022-11-27T18:10:35.047Z,100364.88
2022-11-27T18:13:26.333Z,100353.56
2022-11-27T18:16:16.781Z,100333.81
2022-11-27T18:19:07.130Z,100341.75
2022-11-27T18:21:55.662Z,100327.16
2022-11-27T18:24:46.579Z,100325.16
2022-11-27T18:27:36.022Z,100321.16
2022-11-27T18:30:24.973Z,100320.34
2022-11-27T18:33:13.508Z,100315.50
2022-11-27T18:36:02.468Z,100290.22
2022-11-27T18:38:51.906Z,100310.22
2022-11-27T18:41:41.855Z,100306.56
2022-11-27T18:44:30.343Z,100301.22
2022-11-27T18:47:19.037Z,100301.91
2022-11-27T18:50:08.818Z,100289.97
2022-11-27T18:52:57.393Z,100281.63
2022-11-27T18:55:48.950Z,100283.28
2022-11-27T18:58:43.014Z,100254.72
2022-11-27T19:01:39.571Z,100288.13
2022-11-27T19:04:30.277Z,100280.97
2022-11-27T19:07:18.842Z,100272.66
2022-11-27T19:10:08.678Z,100282.47
2022-11-27T19:12:57.186Z,100272.66
2022-11-27T19:15:47.359Z,100261.03
2022-11-27T19:18:36.916Z,100256.88
2022-11-27T19:21:27.655Z,100243.41
2022-11-27T19:24:16.288Z,100240.38
2022-11-27T19:27:05.028Z,100202.84
2022-11-27T19:29:53.716Z,100236.75
2022-11-27T19:32:43.638Z,100239.06
2022-11-27T19:35:32.770Z,100223.75
2022-11-27T19:38:21.370Z,100228.09
2022-11-27T19:41:13.418Z,100228.06
2022-11-27T19:44:02.017Z,100236.72
2022-11-27T19:46:50.501Z,100131.78
2022-11-27T19:49:40.460Z,100243.75
2022-11-27T19:52:28.991Z,100262.66
2022-11-27T19:55:17.588Z,100265.84
2022-11-27T19:58:06.167Z,100252.19
2022-11-27T20:00:54.978Z,100238.91
2022-11-27T20:03:44.009Z,100230.72
2022-11-27T20:06:33.834Z,100210.41
2022-11-27T20:09:22.328Z,100201.66
2022-11-27T20:12:10.932Z,100193.31
2022-11-27T20:14:59.539Z,100196.66
2022-11-27T20:17:48.007Z,100236.06
2022-11-27T20:20:36.593Z,100236.06
2022-11-27T20:23:26.461Z,100207.69
2022-11-27T20:26:17.234Z,100207.41
2022-11-27T20:29:06.323Z,100205.09
2022-11-27T20:31:54.884Z,100219.41
2022-11-27T20:34:43.655Z,100240.69
2022-11-27T20:37:32.540Z,100207.75
2022-11-27T20:40:23.783Z,100201.13
2022-11-27T20:43:12.364Z,100101.56
2022-11-27T20:46:01.088Z,100220.59
2022-11-27T20:48:51.300Z,100234.06
2022-11-27T20:51:39.986Z,100227.06
2022-11-27T20:54:29.246Z,100222.69
2022-11-27T20:57:19.248Z,100223.03
2022-11-27T21:00:09.821Z,100206.44
2022-11-27T21:02:58.353Z,100183.47
2022-11-27T21:05:48.150Z,100184.13
2022-11-27T21:08:36.878Z,100192.13
2022-11-27T21:11:27.440Z,100185.16
2022-11-27T21:14:20.814Z,100198.28
2022-11-27T21:17:09.452Z,100200.28
2022-11-27T21:19:58.011Z,100199.47
2022-11-27T21:22:46.508Z,100190.81
2022-11-27T21:25:35.310Z,100179.81
2022-11-27T21:28:23.881Z,100179.44
2022-11-27T21:31:17.193Z,100183.28
2022-11-27T21:34:07.356Z,100178.66
2022-11-27T21:36:55.929Z,100166.69
2022-11-27T21:39:45.072Z,100155.56
2022-11-27T21:42:33.599Z,100154.75
2022-11-27T21:45:22.046Z,100155.56
2022-11-27T21:48:14.458Z,100156.91
2022-11-27T21:51:03.703Z,100168.53
2022-11-27T21:53:53.548Z,100153.25
2022-11-27T21:56:42.116Z,100165.06
2022-11-27T21:59:30.665Z,100173.38
2022-11-27T22:02:19.217Z,100163.53
2022-11-27T22:05:10.104Z,100162.19
2022-11-27T22:07:58.685Z,100145.19
2022-11-27T22:10:47.210Z,100116.25
2022-11-27T22:13:36.311Z,100123.72
2022-11-27T22:16:26.112Z,100121.59
2022-11-27T22:19:15.537Z,100114.91
2022-11-27T22:22:05.379Z,100115.78
2022-11-27T22:24:53.870Z,100104.94
2022-11-27T22:27:42.357Z,100095.97
2022-11-27T22:30:30.894Z,100087.47
2022-11-27T22:33:19.727Z,100087.31
2022-11-27T22:36:13.256Z,100074.81
2022-11-27T22:39:04.981Z,100078.81
2022-11-27T22:41:54.557Z,100068.88
2022-11-27T22:44:43.312Z,100062.06
2022-11-27T22:47:31.940Z,100068.41
2022-11-27T22:50:20.874Z,100074.06
2022-11-27T22:53:09.360Z,100074.78
2022-11-27T22:56:04.787Z,100072.72
2022-11-27T22:59:11.275Z,100070.34
2022-11-27T23:02:02.231Z,100050.41
2022-11-27T23:04:50.786Z,100062.91
2022-11-27T23:07:39.270Z,100052.97
2022-11-27T23:10:27.807Z,100052.47
2022-11-27T23:13:18.039Z,100062.63
2022-11-27T23:16:07.388Z,100070.13
2022-11-27T23:18:55.996Z,100001.47
2022-11-27T23:21:44.949Z,100060.69
2022-11-27T23:24:33.479Z,100053.84
2022-11-27T23:27:22.018Z,100052.38
2022-11-27T23:30:12.632Z,100049.53
2022-11-27T23:33:01.264Z,100048.69
2022-11-27T23:35:49.718Z,100054.03
2022-11-27T23:38:40.851Z,100063.00
2022-11-27T23:41:29.888Z,100055.03
2022-11-27T23:44:18.388Z,100051.53
2022-11-27T23:47:08.259Z,100050.38
2022-11-27T23:49:57.399Z,100052.38
2022-11-27T23:52:45.867Z,100052.72
2022-11-27T23:55:34.627Z,100038.63
2022-11-27T23:58:23.143Z,100042.25
